Time;durP1;ratioP1;P1;durP2;ratioP2;P2;SDS_P1;SDS_P2;PMS_P1;PMS_P2;Temp;Humidity;BMP_temperature;BMP_pressure;BME280_temperature;BME280_humidity;BME280_pressure;Samples;Min_cycle;Max_cycle;Signal;HPM_P1;HPM_P2
2021/01/10 00:00:29;;;;;;;;;12.67;9.33;;;;;;;;5069258;28;8835;-75
2021/01/10 00:02:56;;;;;;;;;13.00;10.33;;;;;;;;5069170;28;8950;-74
2021/01/10 00:05:23;;;;;;;;;13.00;10.67;;;;;;;;5064996;28;8897;-75
2021/01/10 00:07:49;;;;;;;;;11.00;10.67;;;;;;;;5069299;28;8827;-75
2021/01/10 00:10:16;;;;;;;;;13.00;10.00;;;;;;;;5069105;28;8859;-75
2021/01/10 00:12:42;;;;;;;;;11.33;11.33;;;;;;;;5069474;28;9555;-76
2021/01/10 00:15:09;;;;;;;;;10.00;10.00;;;;;;;;5069119;28;8838;-76
2021/01/10 00:17:37;;;;;;;;;13.67;13.67;;;;;;;;5068975;28;8957;-76
2021/01/10 00:20:05;;;;;;;;;17.00;11.33;;;;;;;;5068947;28;9573;-75
2021/01/10 00:22:31;;;;;;;;;13.00;10.67;;;;;;;;5070029;28;8934;-76
2021/01/10 00:24:57;;;;;;;;;12.33;10.00;;;;;;;;5069911;28;8866;-77
2021/01/10 00:27:23;;;;;;;;;11.33;11.33;;;;;;;;5069780;28;8867;-78
2021/01/10 00:29:50;;;;;;;;;9.33;9.33;;;;;;;;5070216;28;8831;-78
2021/01/10 00:32:17;;;;;;;;;12.00;7.33;;;;;;;;5069197;28;8854;-75
2021/01/10 00:34:44;;;;;;;;;11.00;10.00;;;;;;;;5068833;28;9112;-76
2021/01/10 00:37:10;;;;;;;;;10.00;10.00;;;;;;;;5069048;28;8921;-75
2021/01/10 00:39:36;;;;;;;;;17.00;9.67;;;;;;;;5068991;28;9112;-76
2021/01/10 00:42:06;;;;;;;;;14.33;11.00;;;;;;;;5068906;28;8843;-74
2021/01/10 00:44:32;;;;;;;;;18.00;13.00;;;;;;;;5069899;28;8966;-74
2021/01/10 00:46:58;;;;;;;;;11.00;10.00;;;;;;;;5069650;28;8947;-75
2021/01/10 00:49:25;;;;;;;;;18.00;15.33;;;;;;;;5070155;28;8847;-76
2021/01/10 00:51:53;;;;;;;;;14.67;12.67;;;;;;;;5069708;28;8850;-74
2021/01/10 00:54:19;;;;;;;;;10.33;10.33;;;;;;;;5069975;28;8842;-76
2021/01/10 00:56:45;;;;;;;;;14.33;13.00;;;;;;;;5071322;28;8846;-75
2021/01/10 00:59:11;;;;;;;;;10.00;9.00;;;;;;;;5073586;28;8881;-76
2021/01/10 01:01:37;;;;;;;;;10.00;9.67;;;;;;;;5073588;28;8855;-74
2021/01/10 01:04:02;;;;;;;;;6.67;6.33;;;;;;;;5073669;28;8847;-76
2021/01/10 01:06:28;;;;;;;;;10.33;6.00;;;;;;;;5073654;28;8956;-74
2021/01/10 01:08:55;;;;;;;;;10.33;10.00;;;;;;;;5073333;28;8838;-76
2021/01/10 01:11:26;;;;;;;;;8.33;8.33;;;;;;;;5069644;28;8974;-75
2021/01/10 01:13:52;;;;;;;;;13.33;9.00;;;;;;;;5069226;28;8989;-76
2021/01/10 01:16:18;;;;;;;;;9.00;9.00;;;;;;;;5073402;28;8847;-76
2021/01/10 01:18:44;;;;;;;;;10.33;9.00;;;;;;;;5073324;28;9567;-77
2021/01/10 01:21:13;;;;;;;;;12.33;6.00;;;;;;;;5073017;28;8961;-77
2021/01/10 01:23:39;;;;;;;;;9.33;7.33;;;;;;;;5073182;28;8943;-76
2021/01/10 01:26:06;;;;;;;;;7.67;7.67;;;;;;;;5073336;28;8822;-75
2021/01/10 01:28:32;;;;;;;;;10.67;7.00;;;;;;;;5073115;28;8953;-75
2021/01/10 01:30:58;;;;;;;;;7.00;7.00;;;;;;;;5072829;28;8854;-76
2021/01/10 01:33:24;;;;;;;;;6.00;5.67;;;;;;;;5073197;28;8953;-77
2021/01/10 01:35:50;;;;;;;;;7.00;7.00;;;;;;;;5072628;28;8861;-76
2021/01/10 01:38:16;;;;;;;;;9.00;6.00;;;;;;;;5073008;28;9555;-76
2021/01/10 01:40:42;;;;;;;;;10.00;7.00;;;;;;;;5073047;28;8970;-76
2021/01/10 01:43:08;;;;;;;;;6.00;5.00;;;;;;;;5072640;28;8858;-75
2021/01/10 01:45:34;;;;;;;;;5.67;5.33;;;;;;;;5072782;28;8843;-77
2021/01/10 01:48:01;;;;;;;;;7.33;7.33;;;;;;;;5072712;28;8847;-74
2021/01/10 01:50:27;;;;;;;;;7.33;7.33;;;;;;;;5072647;28;8831;-75
2021/01/10 01:52:53;;;;;;;;;7.33;6.00;;;;;;;;5072670;28;9563;-77
2021/01/10 01:55:19;;;;;;;;;6.00;5.00;;;;;;;;5072724;28;8862;-77
2021/01/10 01:57:45;;;;;;;;;7.00;5.00;;;;;;;;5072803;28;8859;-74
2021/01/10 02:00:12;;;;;;;;;9.00;6.00;;;;;;;;5072480;28;8973;-77
2021/01/10 02:02:38;;;;;;;;;7.00;7.00;;;;;;;;5072460;28;8961;-76
2021/01/10 02:05:07;;;;;;;;;7.67;7.00;;;;;;;;5072205;28;8873;-76
2021/01/10 02:07:39;;;;;;;;;6.33;6.00;;;;;;;;5072088;28;8907;-75
2021/01/10 02:10:07;;;;;;;;;6.33;6.33;;;;;;;;5072035;28;8842;-76
2021/01/10 02:12:35;;;;;;;;;6.00;6.00;;;;;;;;5072450;28;8839;-76
2021/01/10 02:15:01;;;;;;;;;10.67;9.00;;;;;;;;5072315;28;8974;-76
2021/01/10 02:17:29;;;;;;;;;10.67;8.00;;;;;;;;5072325;28;8849;-73
2021/01/10 02:20:00;;;;;;;;;6.00;6.00;;;;;;;;5072098;28;8900;-76
2021/01/10 02:22:31;;;;;;;;;10.00;6.00;;;;;;;;5072313;28;8871;-76
2021/01/10 02:24:58;;;;;;;;;7.00;6.00;;;;;;;;5072118;28;9027;-75
2021/01/10 02:27:25;;;;;;;;;8.33;6.00;;;;;;;;5072203;28;8961;-75
2021/01/10 02:29:51;;;;;;;;;6.00;4.33;;;;;;;;5068374;28;9666;-75
2021/01/10 02:32:18;;;;;;;;;8.00;8.00;;;;;;;;5071830;28;8962;-77
2021/01/10 02:34:45;;;;;;;;;7.33;5.00;;;;;;;;5071878;28;8826;-77
2021/01/10 02:37:16;;;;;;;;;6.00;6.00;;;;;;;;5071856;28;8881;-76
2021/01/10 02:39:51;;;;;;;;;7.00;6.00;;;;;;;;5071855;28;8885;-76
2021/01/10 02:42:28;;;;;;;;;7.33;6.33;;;;;;;;5072005;28;9074;-76
2021/01/10 02:44:57;;;;;;;;;6.67;6.67;;;;;;;;5067936;28;8843;-76
2021/01/10 02:47:23;;;;;;;;;7.67;6.00;;;;;;;;5068266;28;8843;-75
2021/01/10 02:49:49;;;;;;;;;7.33;6.00;;;;;;;;5067629;28;8884;-74
2021/01/10 02:52:15;;;;;;;;;7.00;7.00;;;;;;;;5071382;28;8855;-75
2021/01/10 02:54:41;;;;;;;;;9.33;6.00;;;;;;;;5071515;28;8842;-74
2021/01/10 02:57:09;;;;;;;;;5.00;5.00;;;;;;;;5071402;28;8942;-75
2021/01/10 02:59:39;;;;;;;;;8.33;5.00;;;;;;;;5071600;28;8842;-76
2021/01/10 03:02:06;;;;;;;;;6.67;5.33;;;;;;;;5071215;28;8962;-77
2021/01/10 03:04:33;;;;;;;;;5.00;5.00;;;;;;;;5071620;28;8963;-77
2021/01/10 03:06:59;;;;;;;;;7.00;3.67;;;;;;;;5071113;28;8955;-77
2021/01/10 03:09:26;;;;;;;;;2.00;2.00;;;;;;;;5071323;28;8970;-77
2021/01/10 03:11:52;;;;;;;;;8.00;5.00;;;;;;;;5071214;28;8949;-77
2021/01/10 03:14:18;;;;;;;;;7.33;4.67;;;;;;;;5071358;28;8830;-77
2021/01/10 03:16:46;;;;;;;;;4.67;4.67;;;;;;;;5070998;28;8893;-78
2021/01/10 03:19:12;;;;;;;;;7.33;5.00;;;;;;;;5070119;28;8843;-76
2021/01/10 03:21:38;;;;;;;;;6.67;5.00;;;;;;;;5070771;28;8946;-77
2021/01/10 03:24:04;;;;;;;;;5.00;5.00;;;;;;;;5070872;28;8827;-77
2021/01/10 03:26:30;;;;;;;;;6.67;5.00;;;;;;;;5071205;28;8961;-77
2021/01/10 03:28:56;;;;;;;;;5.00;4.00;;;;;;;;5070723;28;8866;-76
2021/01/10 03:31:22;;;;;;;;;5.00;3.67;;;;;;;;5070568;28;8839;-76
2021/01/10 03:33:50;;;;;;;;;5.33;5.33;;;;;;;;5070775;28;8939;-75
2021/01/10 03:36:16;;;;;;;;;5.33;5.33;;;;;;;;5070578;28;8953;-74
2021/01/10 03:38:43;;;;;;;;;5.00;5.00;;;;;;;;5070700;28;8859;-75
2021/01/10 03:41:09;;;;;;;;;10.00;7.67;;;;;;;;5070497;28;8850;-76
2021/01/10 03:43:35;;;;;;;;;6.00;4.33;;;;;;;;5070687;28;9717;-75
2021/01/10 03:46:01;;;;;;;;;7.33;6.67;;;;;;;;5070598;28;8857;-75
2021/01/10 03:48:27;;;;;;;;;6.67;6.33;;;;;;;;5070563;28;8953;-75
2021/01/10 03:50:54;;;;;;;;;6.33;5.33;;;;;;;;5070471;28;9072;-75
2021/01/10 03:53:20;;;;;;;;;6.00;5.00;;;;;;;;5066576;28;8949;-74
2021/01/10 03:55:46;;;;;;;;;8.33;6.67;;;;;;;;5070415;28;8954;-75
2021/01/10 03:58:12;;;;;;;;;7.33;6.00;;;;;;;;5070207;28;8985;-76
2021/01/10 04:00:37;;;;;;;;;5.00;4.67;;;;;;;;5070431;28;8945;-76
2021/01/10 04:03:04;;;;;;;;;6.67;6.67;;;;;;;;5069963;28;8843;-76
2021/01/10 04:05:29;;;;;;;;;6.00;6.00;;;;;;;;5070586;28;8835;-76
2021/01/10 04:07:56;;;;;;;;;6.67;6.67;;;;;;;;5070177;28;8962;-78
2021/01/10 04:10:22;;;;;;;;;7.67;7.33;;;;;;;;5070322;28;8989;-77
2021/01/10 04:12:48;;;;;;;;;9.00;8.00;;;;;;;;5066244;28;8823;-78
2021/01/10 04:15:14;;;;;;;;;10.00;8.33;;;;;;;;5069843;28;8950;-78
2021/01/10 04:17:40;;;;;;;;;5.67;5.00;;;;;;;;5070503;28;9646;-77
2021/01/10 04:20:06;;;;;;;;;6.00;6.00;;;;;;;;5069868;28;8861;-77
2021/01/10 04:22:32;;;;;;;;;8.33;8.33;;;;;;;;5070263;28;8841;-77
2021/01/10 04:24:59;;;;;;;;;9.33;8.00;;;;;;;;5070064;28;8838;-76
2021/01/10 04:27:25;;;;;;;;;7.33;5.00;;;;;;;;5070120;28;8945;-76
2021/01/10 04:29:51;;;;;;;;;8.00;6.67;;;;;;;;5069687;28;8871;-77
2021/01/10 04:32:17;;;;;;;;;9.00;6.00;;;;;;;;5070024;28;8842;-76
2021/01/10 04:34:43;;;;;;;;;8.00;8.00;;;;;;;;5069722;28;9040;-77
2021/01/10 04:37:09;;;;;;;;;8.33;7.33;;;;;;;;5069426;28;8966;-76
2021/01/10 04:39:35;;;;;;;;;7.33;6.00;;;;;;;;5070116;28;8970;-77
2021/01/10 04:42:02;;;;;;;;;9.67;8.00;;;;;;;;5069626;28;8981;-78
2021/01/10 04:44:28;;;;;;;;;5.67;5.33;;;;;;;;5069983;28;8853;-76
2021/01/10 04:46:54;;;;;;;;;8.00;8.00;;;;;;;;5069432;28;8969;-76
2021/01/10 04:49:20;;;;;;;;;8.67;8.67;;;;;;;;5069966;28;8855;-77
2021/01/10 04:51:47;;;;;;;;;8.33;8.33;;;;;;;;5069913;28;8942;-77
2021/01/10 04:54:13;;;;;;;;;13.00;8.67;;;;;;;;5069679;28;8862;-77
2021/01/10 04:56:41;;;;;;;;;8.33;8.00;;;;;;;;5069686;28;8967;-77
2021/01/10 04:59:08;;;;;;;;;10.67;9.00;;;;;;;;5069445;28;8831;-77
2021/01/10 05:01:36;;;;;;;;;6.00;6.00;;;;;;;;5069620;28;9025;-75
2021/01/10 05:04:02;;;;;;;;;9.00;8.67;;;;;;;;5069553;28;8954;-76
2021/01/10 05:06:28;;;;;;;;;10.00;9.00;;;;;;;;5069716;28;8953;-75
2021/01/10 05:08:55;;;;;;;;;6.00;6.00;;;;;;;;5069358;28;8843;-77
2021/01/10 05:11:21;;;;;;;;;13.00;9.00;;;;;;;;5069502;28;8843;-77
2021/01/10 05:13:47;;;;;;;;;9.00;8.00;;;;;;;;5069627;28;8892;-76
2021/01/10 05:16:18;;;;;;;;;9.33;9.33;;;;;;;;5069274;28;9628;-76
2021/01/10 05:18:51;;;;;;;;;8.67;8.67;;;;;;;;5069605;28;8937;-77
2021/01/10 05:21:19;;;;;;;;;9.00;8.67;;;;;;;;5065537;28;8965;-77
2021/01/10 05:23:45;;;;;;;;;12.00;10.67;;;;;;;;5069364;28;8843;-77
2021/01/10 05:26:11;;;;;;;;;8.00;8.00;;;;;;;;5069261;28;9582;-78
2021/01/10 05:28:37;;;;;;;;;11.33;9.67;;;;;;;;5069531;28;8965;-77
2021/01/10 05:31:08;;;;;;;;;8.67;6.00;;;;;;;;5069272;28;8939;-75
2021/01/10 05:33:46;;;;;;;;;9.67;8.33;;;;;;;;5069564;28;8859;-77
2021/01/10 05:36:23;;;;;;;;;9.00;9.00;;;;;;;;5068832;28;8862;-76
2021/01/10 05:38:49;;;;;;;;;6.00;6.00;;;;;;;;5065441;28;8980;-77
2021/01/10 05:41:15;;;;;;;;;9.00;9.00;;;;;;;;5069207;28;8865;-78
2021/01/10 05:43:56;;;;;;;;;8.00;7.33;;;;;;;;5072305;28;9678;-75
2021/01/10 05:46:22;;;;;;;;;9.00;8.00;;;;;;;;5070522;28;8890;-75
2021/01/10 05:48:49;;;;;;;;;12.00;8.00;;;;;;;;5073097;28;8865;-75
2021/01/10 05:51:16;;;;;;;;;9.00;8.00;;;;;;;;5072595;28;8927;-76
2021/01/10 05:53:42;;;;;;;;;7.33;5.67;;;;;;;;5073019;28;8850;-77
2021/01/10 05:56:08;;;;;;;;;8.67;8.00;;;;;;;;5072472;28;8908;-75
2021/01/10 05:58:34;;;;;;;;;7.33;7.33;;;;;;;;5072687;28;8864;-75
2021/01/10 06:01:00;;;;;;;;;6.67;6.67;;;;;;;;5072416;28;8859;-76
2021/01/10 06:03:31;;;;;;;;;6.00;6.00;;;;;;;;5072731;28;8929;-76
2021/01/10 06:05:59;;;;;;;;;7.33;7.33;;;;;;;;5072485;28;8843;-76
2021/01/10 06:08:29;;;;;;;;;9.00;8.00;;;;;;;;5072624;28;8837;-77
2021/01/10 06:10:55;;;;;;;;;12.00;12.00;;;;;;;;5072370;28;8857;-75
2021/01/10 06:13:21;;;;;;;;;10.00;6.00;;;;;;;;5072530;28;8823;-75
2021/01/10 06:15:50;;;;;;;;;9.33;5.00;;;;;;;;5068471;28;8941;-77
2021/01/10 06:18:16;;;;;;;;;10.67;8.33;;;;;;;;5068524;28;8827;-77
2021/01/10 06:20:42;;;;;;;;;10.00;10.00;;;;;;;;5072469;28;8946;-77
2021/01/10 06:23:09;;;;;;;;;11.33;9.00;;;;;;;;5072304;28;8846;-75
2021/01/10 06:25:38;;;;;;;;;12.33;10.00;;;;;;;;5072289;28;8965;-77
2021/01/10 06:28:08;;;;;;;;;8.67;8.00;;;;;;;;5072130;28;8838;-77
2021/01/10 06:30:35;;;;;;;;;8.67;8.67;;;;;;;;5072428;28;8966;-77
2021/01/10 06:33:04;;;;;;;;;8.67;8.67;;;;;;;;5071859;28;8954;-77
2021/01/10 06:35:34;;;;;;;;;9.67;8.67;;;;;;;;5072129;28;8843;-76
2021/01/10 06:38:01;;;;;;;;;16.00;10.00;;;;;;;;5071995;28;8977;-76
2021/01/10 06:40:31;;;;;;;;;10.33;9.00;;;;;;;;5072215;28;8954;-76
2021/01/10 06:43:00;;;;;;;;;8.00;8.00;;;;;;;;5072074;28;8843;-76
2021/01/10 06:45:27;;;;;;;;;11.67;8.33;;;;;;;;5072107;28;8985;-77
2021/01/10 06:47:54;;;;;;;;;13.00;8.67;;;;;;;;5071580;28;8869;-77
2021/01/10 06:50:21;;;;;;;;;9.67;9.67;;;;;;;;5072059;28;8831;-76
2021/01/10 06:52:48;;;;;;;;;11.33;9.00;;;;;;;;5067861;28;8850;-77
2021/01/10 06:55:16;;;;;;;;;10.00;9.00;;;;;;;;5071619;28;8908;-80
2021/01/10 06:57:43;;;;;;;;;11.33;8.67;;;;;;;;5071661;28;9531;-77
2021/01/10 07:00:09;;;;;;;;;6.00;5.67;;;;;;;;5071602;28;8861;-76
2021/01/10 07:03:02;;;;;;;;;7.33;6.00;;;;;;;;5071338;28;8851;-78
2021/01/10 07:05:58;;;;;;;;;5.33;5.33;;;;;;;;5069489;28;8846;-77
2021/01/10 07:08:31;;;;;;;;;6.33;5.67;;;;;;;;5068521;28;9523;-77
2021/01/10 07:10:57;;;;;;;;;7.33;7.33;;;;;;;;5071279;28;8834;-75
2021/01/10 07:13:28;;;;;;;;;10.00;9.00;;;;;;;;5071490;28;8907;-76
2021/01/10 07:16:09;;;;;;;;;12.67;8.00;;;;;;;;5071030;28;8823;-76
2021/01/10 07:18:48;;;;;;;;;5.00;5.00;;;;;;;;5071044;28;9759;-76
2021/01/10 07:21:28;;;;;;;;;4.67;4.67;;;;;;;;5070994;28;8884;-76
2021/01/10 07:23:53;;;;;;;;;6.00;5.00;;;;;;;;5067376;28;8846;-76
2021/01/10 07:26:34;;;;;;;;;6.00;5.67;;;;;;;;5070933;28;8835;-76
2021/01/10 07:29:01;;;;;;;;;7.67;5.00;;;;;;;;5068414;28;8945;-74
2021/01/10 07:31:27;;;;;;;;;4.00;4.00;;;;;;;;5070685;28;8981;-78
2021/01/10 07:34:10;;;;;;;;;5.00;4.33;;;;;;;;5070523;28;8970;-73
2021/01/10 07:36:51;;;;;;;;;6.00;4.67;;;;;;;;5070668;28;8831;-72
2021/01/10 07:39:18;;;;;;;;;6.00;4.00;;;;;;;;5066893;28;9067;-73
2021/01/10 07:41:44;;;;;;;;;6.00;6.00;;;;;;;;5070736;28;8945;-72
2021/01/10 07:44:11;;;;;;;;;4.33;4.00;;;;;;;;5070001;28;8853;-68
2021/01/10 07:47:01;;;;;;;;;6.33;4.00;;;;;;;;5070514;28;8945;-68
2021/01/10 07:49:46;;;;;;;;;4.00;4.00;;;;;;;;5067826;28;8835;-69
2021/01/10 07:52:12;;;;;;;;;5.33;4.00;;;;;;;;5070087;28;9826;-69
2021/01/10 07:54:54;;;;;;;;;5.67;5.67;;;;;;;;5067568;28;8850;-68
2021/01/10 07:57:30;;;;;;;;;5.00;5.00;;;;;;;;5066851;28;8834;-68
2021/01/10 08:00:17;;;;;;;;;4.33;4.33;;;;;;;;5069604;28;8858;-68
2021/01/10 08:02:47;;;;;;;;;4.33;4.33;;;;;;;;5066043;28;8885;-68
2021/01/10 08:05:14;;;;;;;;;4.00;4.00;;;;;;;;5068921;28;8882;-68
2021/01/10 08:07:45;;;;;;;;;8.33;5.00;;;;;;;;5069631;28;9638;-69
2021/01/10 08:10:12;;;;;;;;;3.67;2.00;;;;;;;;5068535;28;8851;-67
2021/01/10 08:12:39;;;;;;;;;4.00;4.00;;;;;;;;5069241;28;8823;-66
2021/01/10 08:15:06;;;;;;;;;5.00;5.00;;;;;;;;5067874;28;8942;-67
2021/01/10 08:17:32;;;;;;;;;4.67;4.67;;;;;;;;5069441;28;8955;-67
2021/01/10 08:20:00;;;;;;;;;4.33;4.33;;;;;;;;5069691;28;8885;-69
2021/01/10 08:22:26;;;;;;;;;5.67;4.67;;;;;;;;5070059;28;8854;-70
2021/01/10 08:24:53;;;;;;;;;6.67;4.33;;;;;;;;5069624;28;8969;-67
2021/01/10 08:27:19;;;;;;;;;8.00;6.00;;;;;;;;5069675;28;8854;-68
2021/01/10 08:29:45;;;;;;;;;5.00;5.00;;;;;;;;5069573;28;8921;-69
2021/01/10 08:32:11;;;;;;;;;2.67;2.67;;;;;;;;5069499;28;8867;-69
2021/01/10 08:34:45;;;;;;;;;5.67;5.67;;;;;;;;5069565;28;8843;-69
2021/01/10 08:37:12;;;;;;;;;6.00;6.00;;;;;;;;5069645;28;8843;-68
2021/01/10 08:39:38;;;;;;;;;5.33;5.33;;;;;;;;5069777;28;8973;-69
2021/01/10 08:42:04;;;;;;;;;5.00;4.33;;;;;;;;5066734;28;8847;-69
2021/01/10 08:44:30;;;;;;;;;6.00;6.00;;;;;;;;5067459;28;8961;-68
2021/01/10 08:46:56;;;;;;;;;5.33;5.00;;;;;;;;5066441;28;8972;-68
2021/01/10 08:49:23;;;;;;;;;5.00;5.00;;;;;;;;5066141;28;8855;-69
2021/01/10 08:51:49;;;;;;;;;10.33;6.00;;;;;;;;5066789;28;8862;-69
2021/01/10 08:54:17;;;;;;;;;5.00;5.00;;;;;;;;5063333;28;8973;-68
2021/01/10 08:56:44;;;;;;;;;5.33;5.00;;;;;;;;5066006;28;8878;-68
2021/01/10 08:59:10;;;;;;;;;1.00;1.00;;;;;;;;5065657;28;9013;-69
2021/01/10 09:01:37;;;;;;;;;5.00;5.00;;;;;;;;5066352;28;8881;-68
2021/01/10 09:04:04;;;;;;;;;4.33;4.33;;;;;;;;5066955;28;8846;-72
2021/01/10 09:06:44;;;;;;;;;5.00;5.00;;;;;;;;5067670;28;8841;-68
2021/01/10 09:09:18;;;;;;;;;2.67;2.67;;;;;;;;5064032;28;9591;-68
2021/01/10 09:11:46;;;;;;;;;5.00;4.00;;;;;;;;5064860;28;9039;-71
2021/01/10 09:14:14;;;;;;;;;4.67;4.00;;;;;;;;5068162;28;8851;-72
2021/01/10 09:16:40;;;;;;;;;4.67;3.33;;;;;;;;5068835;28;8842;-69
2021/01/10 09:19:07;;;;;;;;;5.00;5.00;;;;;;;;5070433;28;9777;-71
2021/01/10 09:21:33;;;;;;;;;5.33;4.33;;;;;;;;5073251;28;8850;-69
2021/01/10 09:24:00;;;;;;;;;4.33;4.33;;;;;;;;5072900;28;8831;-70
2021/01/10 09:26:27;;;;;;;;;4.67;4.67;;;;;;;;5072942;28;8834;-71
2021/01/10 09:28:54;;;;;;;;;10.67;9.00;;;;;;;;5071308;28;8846;-68
2021/01/10 09:31:20;;;;;;;;;3.00;2.00;;;;;;;;5069914;28;8862;-74
2021/01/10 09:33:53;;;;;;;;;4.67;2.00;;;;;;;;5071333;28;8927;-72
2021/01/10 09:36:19;;;;;;;;;2.00;2.00;;;;;;;;5068709;28;8823;-73
2021/01/10 09:38:54;;;;;;;;;4.00;4.00;;;;;;;;5072528;28;8885;-77
2021/01/10 09:41:20;;;;;;;;;5.33;4.33;;;;;;;;5068962;28;8957;-72
2021/01/10 09:43:49;;;;;;;;;13.00;9.00;;;;;;;;5072684;28;8941;-69
2021/01/10 09:46:22;;;;;;;;;6.00;5.33;;;;;;;;5071932;28;8827;-74
2021/01/10 09:48:49;;;;;;;;;3.33;3.33;;;;;;;;5068670;28;8936;-72
2021/01/10 09:51:15;;;;;;;;;1.67;1.67;;;;;;;;5071843;28;8870;-72
2021/01/10 09:53:46;;;;;;;;;1.00;1.00;;;;;;;;5072065;28;9566;-72
2021/01/10 09:56:12;;;;;;;;;2.00;2.00;;;;;;;;5071959;28;8939;-70
2021/01/10 09:58:38;;;;;;;;;6.00;5.00;;;;;;;;5071960;28;8842;-71
2021/01/10 10:01:08;;;;;;;;;5.00;4.00;;;;;;;;5071438;28;8877;-72
2021/01/10 10:03:35;;;;;;;;;7.33;3.33;;;;;;;;5071721;28;9366;-71
2021/01/10 10:06:01;;;;;;;;;1.33;1.33;;;;;;;;5071806;28;8847;-71
2021/01/10 10:08:27;;;;;;;;;1.33;1.00;;;;;;;;5072251;28;8881;-71
2021/01/10 10:10:53;;;;;;;;;2.00;2.00;;;;;;;;5071450;28;8851;-76
2021/01/10 10:13:27;;;;;;;;;1.00;1.00;;;;;;;;5072387;28;8879;-73
2021/01/10 10:15:54;;;;;;;;;0.67;0.00;;;;;;;;5066022;28;8835;-69
2021/01/10 10:18:21;;;;;;;;;2.00;1.00;;;;;;;;5068740;28;8850;-80
2021/01/10 10:20:48;;;;;;;;;2.00;2.00;;;;;;;;5067640;28;8827;-71
2021/01/10 10:23:15;;;;;;;;;1.33;1.00;;;;;;;;5071605;28;8925;-71
2021/01/10 10:25:42;;;;;;;;;1.33;1.33;;;;;;;;5071864;28;8858;-67
2021/01/10 10:28:08;;;;;;;;;2.00;2.00;;;;;;;;5071613;28;8961;-70
2021/01/10 10:30:34;;;;;;;;;0.33;0.33;;;;;;;;5067462;28;8934;-69
2021/01/10 10:33:01;;;;;;;;;3.33;1.00;;;;;;;;5069575;28;8973;-68
2021/01/10 10:35:27;;;;;;;;;1.00;1.00;;;;;;;;5070104;28;8959;-70
2021/01/10 10:37:54;;;;;;;;;1.00;1.00;;;;;;;;5071546;28;8834;-72
2021/01/10 10:40:20;;;;;;;;;1.33;1.00;;;;;;;;5071920;28;8847;-68
2021/01/10 10:42:46;;;;;;;;;1.00;1.00;;;;;;;;5071514;28;8935;-66
2021/01/10 10:45:12;;;;;;;;;0.67;0.67;;;;;;;;5071066;28;8859;-67
2021/01/10 10:47:38;;;;;;;;;1.00;1.00;;;;;;;;5070636;28;8920;-68
2021/01/10 10:50:04;;;;;;;;;0.00;0.00;;;;;;;;5068768;28;8847;-69
2021/01/10 10:52:30;;;;;;;;;1.00;1.00;;;;;;;;5071183;28;8842;-69
2021/01/10 10:54:57;;;;;;;;;1.00;1.00;;;;;;;;5070333;28;8857;-69
2021/01/10 10:57:23;;;;;;;;;2.00;1.00;;;;;;;;5070611;28;8838;-69
2021/01/10 10:59:49;;;;;;;;;3.33;2.00;;;;;;;;5070424;28;8863;-69
2021/01/10 11:02:15;;;;;;;;;2.00;1.00;;;;;;;;5070675;28;8837;-69
2021/01/10 11:04:44;;;;;;;;;1.00;1.00;;;;;;;;5070903;28;8928;-69
2021/01/10 11:07:10;;;;;;;;;0.00;0.00;;;;;;;;5070195;28;8869;-70
2021/01/10 11:09:37;;;;;;;;;0.00;0.00;;;;;;;;5070714;28;9982;-74
2021/01/10 11:12:04;;;;;;;;;1.00;1.00;;;;;;;;5070510;28;8846;-70
2021/01/10 11:14:30;;;;;;;;;1.00;1.00;;;;;;;;5069794;28;8815;-71
2021/01/10 11:16:56;;;;;;;;;0.00;0.00;;;;;;;;5070639;28;8921;-74
2021/01/10 11:19:22;;;;;;;;;0.00;0.00;;;;;;;;5066349;28;8975;-69
2021/01/10 11:21:48;;;;;;;;;1.00;1.00;;;;;;;;5068356;28;8954;-73
2021/01/10 11:24:14;;;;;;;;;0.67;0.00;;;;;;;;5067160;28;8889;-67
2021/01/10 11:26:41;;;;;;;;;0.00;0.00;;;;;;;;5066053;28;8943;-70
2021/01/10 11:29:08;;;;;;;;;1.67;0.67;;;;;;;;5070409;28;8850;-69
2021/01/10 11:31:35;;;;;;;;;0.00;0.00;;;;;;;;5070476;28;8843;-73
2021/01/10 11:34:01;;;;;;;;;1.00;1.00;;;;;;;;5070016;28;8830;-74
2021/01/10 11:36:27;;;;;;;;;1.00;1.00;;;;;;;;5070574;28;9611;-74
2021/01/10 11:38:54;;;;;;;;;1.00;1.00;;;;;;;;5070451;28;8965;-73
2021/01/10 11:41:21;;;;;;;;;0.00;0.00;;;;;;;;5070089;28;8823;-72
2021/01/10 11:43:47;;;;;;;;;0.00;0.00;;;;;;;;5070521;28;8853;-72
2021/01/10 11:46:14;;;;;;;;;1.00;1.00;;;;;;;;5070586;28;8985;-71
2021/01/10 11:48:41;;;;;;;;;0.00;0.00;;;;;;;;5070154;28;8838;-74
2021/01/10 11:51:08;;;;;;;;;0.00;0.00;;;;;;;;5036318;28;10285;-70
2021/01/10 11:53:33;;;;;;;;;2.00;2.00;;;;;;;;5070512;28;8967;-70
2021/01/10 11:56:00;;;;;;;;;1.33;1.00;;;;;;;;5069909;28;9595;-68
2021/01/10 11:58:26;;;;;;;;;0.00;0.00;;;;;;;;5070481;28;8959;-68
2021/01/10 12:00:52;;;;;;;;;0.33;0.33;;;;;;;;5070454;28;8843;-67
2021/01/10 12:03:19;;;;;;;;;0.00;0.00;;;;;;;;4965250;28;10897;-69
2021/01/10 12:05:45;;;;;;;;;2.00;0.00;;;;;;;;5045457;28;9203;-69
2021/01/10 12:08:11;;;;;;;;;1.00;0.00;;;;;;;;5049178;28;8919;-69
2021/01/10 12:10:37;;;;;;;;;1.67;1.67;;;;;;;;5048060;28;8850;-68
2021/01/10 12:13:03;;;;;;;;;1.00;1.00;;;;;;;;5048980;28;8854;-68
2021/01/10 12:15:29;;;;;;;;;1.00;1.00;;;;;;;;5047690;28;9619;-68
2021/01/10 12:17:55;;;;;;;;;2.67;1.67;;;;;;;;5048220;28;8842;-69
2021/01/10 12:20:22;;;;;;;;;2.00;0.00;;;;;;;;5049456;28;8954;-68
2021/01/10 12:22:48;;;;;;;;;1.00;1.00;;;;;;;;5045037;28;8838;-64
2021/01/10 12:25:14;;;;;;;;;3.33;0.67;;;;;;;;5048723;28;9624;-64
2021/01/10 12:27:40;;;;;;;;;0.00;0.00;;;;;;;;5047614;28;8827;-69
2021/01/10 12:30:07;;;;;;;;;2.00;1.00;;;;;;;;5049155;28;9571;-68
2021/01/10 12:32:35;;;;;;;;;2.00;0.33;;;;;;;;5049362;28;8945;-67
2021/01/10 12:35:01;;;;;;;;;0.67;0.67;;;;;;;;5049617;28;8854;-68
2021/01/10 12:37:28;;;;;;;;;2.00;1.33;;;;;;;;5049273;28;8839;-68
2021/01/10 12:39:54;;;;;;;;;1.00;0.00;;;;;;;;5049812;28;8839;-68
2021/01/10 12:42:22;;;;;;;;;0.00;0.00;;;;;;;;5049763;28;8835;-68
2021/01/10 12:44:48;;;;;;;;;0.00;0.00;;;;;;;;5042547;28;8880;-68
2021/01/10 12:47:14;;;;;;;;;0.00;0.00;;;;;;;;5047656;28;8866;-69
2021/01/10 12:49:40;;;;;;;;;0.00;0.00;;;;;;;;5047824;28;8859;-70
2021/01/10 12:52:06;;;;;;;;;0.00;0.00;;;;;;;;5050739;28;9677;-68
2021/01/10 12:54:33;;;;;;;;;0.00;0.00;;;;;;;;5049537;28;8850;-68
2021/01/10 12:56:59;;;;;;;;;0.00;0.00;;;;;;;;5052231;28;8838;-69
2021/01/10 12:59:25;;;;;;;;;0.00;0.00;;;;;;;;5049524;28;8847;-70
2021/01/10 13:01:51;;;;;;;;;0.00;0.00;;;;;;;;5015507;28;10622;-71
2021/01/10 13:04:17;;;;;;;;;0.00;0.00;;;;;;;;5068471;28;8863;-69
2021/01/10 13:06:43;;;;;;;;;2.00;0.00;;;;;;;;5068226;28;8974;-70
2021/01/10 13:09:09;;;;;;;;;0.00;0.00;;;;;;;;5070322;28;8830;-70
2021/01/10 13:11:35;;;;;;;;;0.00;0.00;;;;;;;;5065268;28;8900;-69
2021/01/10 13:14:01;;;;;;;;;0.00;0.00;;;;;;;;5070733;28;8843;-72
2021/01/10 13:16:27;;;;;;;;;0.00;0.00;;;;;;;;5066703;28;8837;-67
2021/01/10 13:18:53;;;;;;;;;0.00;0.00;;;;;;;;5071956;28;8839;-66
2021/01/10 13:21:19;;;;;;;;;0.00;0.00;;;;;;;;5073395;28;8849;-69
2021/01/10 13:23:45;;;;;;;;;0.00;0.00;;;;;;;;5073267;28;9391;-68
2021/01/10 13:26:14;;;;;;;;;0.67;0.00;;;;;;;;5072788;28;9001;-68
2021/01/10 13:28:41;;;;;;;;;0.00;0.00;;;;;;;;5066226;28;9891;-68
2021/01/10 13:31:07;;;;;;;;;0.00;0.00;;;;;;;;5051412;28;9940;-68
2021/01/10 13:33:33;;;;;;;;;0.00;0.00;;;;;;;;5052905;28;9042;-68
2021/01/10 13:35:58;;;;;;;;;0.00;0.00;;;;;;;;5052143;28;8842;-68
2021/01/10 13:38:24;;;;;;;;;0.00;0.00;;;;;;;;5052695;28;8860;-68
2021/01/10 13:40:52;;;;;;;;;0.00;0.00;;;;;;;;5051255;28;8992;-68
2021/01/10 13:43:22;;;;;;;;;0.00;0.00;;;;;;;;5051214;28;8954;-67
2021/01/10 13:45:49;;;;;;;;;0.00;0.00;;;;;;;;5050849;28;8872;-68
2021/01/10 13:48:15;;;;;;;;;0.00;0.00;;;;;;;;5052096;28;8988;-67
2021/01/10 13:50:41;;;;;;;;;0.00;0.00;;;;;;;;5055495;28;8861;-68
2021/01/10 13:53:07;;;;;;;;;0.00;0.00;;;;;;;;5057775;28;8869;-68
2021/01/10 13:55:33;;;;;;;;;0.00;0.00;;;;;;;;5052421;28;8879;-67
2021/01/10 13:57:59;;;;;;;;;0.00;0.00;;;;;;;;5056889;28;8833;-68
2021/01/10 14:00:26;;;;;;;;;1.33;1.00;;;;;;;;5053807;28;8860;-69
2021/01/10 16:03:01;;;;;;;;;6.20;5.00;;;;;;;;5052120;27;13423;-69
2021/01/10 16:05:27;;;;;;;;;2.67;2.67;;;;;;;;5075450;28;8973;-68
2021/01/10 16:07:53;;;;;;;;;4.00;4.00;;;;;;;;5074618;28;8837;-68
2021/01/10 16:10:19;;;;;;;;;2.33;2.00;;;;;;;;5076790;28;8835;-67
2021/01/10 16:12:45;;;;;;;;;5.00;2.00;;;;;;;;5073773;28;9042;-69
2021/01/10 16:15:12;;;;;;;;;7.00;2.00;;;;;;;;5076948;28;8977;-70
2021/01/10 16:17:39;;;;;;;;;5.00;4.00;;;;;;;;5074334;28;8957;-68
2021/01/10 16:20:07;;;;;;;;;4.00;4.00;;;;;;;;5013103;28;10433;-67
2021/01/10 16:22:33;;;;;;;;;2.67;2.67;;;;;;;;5077993;28;8827;-68
2021/01/10 16:25:03;;;;;;;;;5.00;2.00;;;;;;;;5075390;28;8908;-67
2021/01/10 16:27:29;;;;;;;;;4.00;2.00;;;;;;;;5074631;28;8935;-67
2021/01/10 16:29:55;;;;;;;;;4.00;4.00;;;;;;;;5074522;28;8968;-68
2021/01/10 16:32:21;;;;;;;;;2.00;2.00;;;;;;;;5075724;28;8878;-67
2021/01/10 16:34:48;;;;;;;;;4.00;2.00;;;;;;;;5074101;28;8841;-68
2021/01/10 16:37:18;;;;;;;;;2.00;2.00;;;;;;;;5073178;28;8833;-68
2021/01/10 16:39:44;;;;;;;;;2.00;2.00;;;;;;;;5073629;28;8967;-68
2021/01/10 16:42:10;;;;;;;;;4.33;4.00;;;;;;;;5076136;28;8827;-68
2021/01/10 16:44:36;;;;;;;;;2.00;2.00;;;;;;;;5073500;28;8831;-68
2021/01/10 16:47:01;;;;;;;;;4.00;4.00;;;;;;;;5075018;28;8876;-70
2021/01/10 16:49:27;;;;;;;;;4.00;4.00;;;;;;;;5074838;28;8856;-70
2021/01/10 16:51:53;;;;;;;;;2.33;1.00;;;;;;;;5074174;28;8865;-71
2021/01/10 16:54:22;;;;;;;;;2.00;2.00;;;;;;;;5077513;28;8835;-69